Time;durP1;ratioP1;P1;durP2;ratioP2;P2;SDS_P1;SDS_P2;PMS_P1;PMS_P2;Temp;Humidity;BMP_temperature;BMP_pressure;BME280_temperature;BME280_humidity;BME280_pressure;Samples;Min_cycle;Max_cycle;Signal;HPM_P1;HPM_P2
2023/02/14 00:00:26;;;;;;;24.30;8.88;;;;;;;6.85;78.08;103006.78;5089657;28;20375;-53
2023/02/14 00:02:52;;;;;;;17.00;8.75;;;;;;;6.90;77.89;103013.53;5094143;28;20382;-53
2023/02/14 00:05:19;;;;;;;18.83;9.48;;;;;;;6.97;78.48;103011.47;5094576;28;20484;-53
2023/02/14 00:07:46;;;;;;;20.83;9.05;;;;;;;6.97;78.33;103007.94;5093494;28;20036;-53
2023/02/14 00:10:12;;;;;;;18.23;9.38;;;;;;;6.92;78.53;103010.81;5094440;28;20422;-54
2023/02/14 00:12:39;;;;;;;22.13;10.25;;;;;;;6.86;77.74;103011.13;5094501;28;20048;-54
2023/02/14 00:15:21;;;;;;;19.45;9.30;;;;;;;6.88;77.85;103012.75;5094385;28;20044;-54
2023/02/14 00:17:51;;;;;;;22.90;9.85;;;;;;;6.95;77.65;103008.03;5092943;28;20404;-54
2023/02/14 00:20:18;;;;;;;20.27;9.00;;;;;;;6.87;78.89;103013.69;5094243;28;20056;-53
2023/02/14 00:22:45;;;;;;;18.50;8.77;;;;;;;6.81;78.46;103006.06;5094304;28;20097;-53
2023/02/14 00:25:12;;;;;;;19.67;9.95;;;;;;;6.82;78.21;103010.44;5094218;28;20405;-53
2023/02/14 00:27:39;;;;;;;20.77;9.65;;;;;;;6.74;78.62;103009.94;5092793;28;20051;-54
2023/02/14 00:30:07;;;;;;;21.95;9.85;;;;;;;6.74;78.79;102999.38;5094054;28;20070;-53
2023/02/14 00:32:37;;;;;;;27.42;9.70;;;;;;;6.76;78.77;103000.16;5094138;28;20469;-54
2023/02/14 00:35:05;;;;;;;27.02;9.80;;;;;;;6.66;79.08;102993.63;5093958;28;20047;-54
2023/02/14 00:37:45;;;;;;;20.65;10.07;;;;;;;6.67;78.61;103000.59;5111151;27;20954;-52
2023/02/14 00:40:12;;;;;;;21.10;10.05;;;;;;;6.58;78.90;103001.88;5111045;28;20044;-53
2023/02/14 00:42:38;;;;;;;20.23;9.23;;;;;;;6.59;79.09;103002.75;5111091;28;20404;-53
2023/02/14 00:45:05;;;;;;;24.65;9.77;;;;;;;6.56;79.30;103000.25;5110837;28;20051;-53
2023/02/14 00:47:34;;;;;;;22.73;9.73;;;;;;;6.54;79.25;103000.31;5109792;28;20043;-54
2023/02/14 00:50:03;;;;;;;19.23;8.73;;;;;;;6.52;79.77;102999.53;5110817;28;20481;-53
2023/02/14 00:52:30;;;;;;;21.73;9.82;;;;;;;6.55;79.33;102999.41;5111229;28;20556;-53
2023/02/14 00:54:57;;;;;;;17.00;9.02;;;;;;;6.53;79.14;103001.25;5110904;28;20047;-53
2023/02/14 00:57:23;;;;;;;19.50;9.45;;;;;;;6.40;79.78;102997.47;5110673;28;20042;-53
2023/02/14 00:59:50;;;;;;;21.50;9.93;;;;;;;6.37;79.79;103000.25;5110078;28;20113;-53
2023/02/14 01:02:17;;;;;;;21.95;9.43;;;;;;;6.40;80.11;103008.88;5109012;28;20040;-52
2023/02/14 01:04:44;;;;;;;19.35;9.48;;;;;;;6.39;79.56;103003.69;5110901;28;20124;-53
2023/02/14 01:07:10;;;;;;;21.73;9.23;;;;;;;6.37;79.39;103001.13;5110733;28;20503;-54
2023/02/14 01:09:37;;;;;;;22.25;10.05;;;;;;;6.41;79.71;103007.13;5110709;28;20400;-53
2023/02/14 01:12:04;;;;;;;22.85;9.52;;;;;;;6.38;79.59;103009.88;5110493;28;20052;-54
2023/02/14 01:14:32;;;;;;;20.10;9.75;;;;;;;6.30;80.14;103016.38;5110829;28;20051;-53
2023/02/14 01:16:59;;;;;;;19.08;9.68;;;;;;;6.24;79.96;103018.41;5110184;28;20450;-53
2023/02/14 01:19:26;;;;;;;23.63;10.13;;;;;;;6.30;79.94;103010.25;5110495;28;20048;-52
2023/02/14 01:21:52;;;;;;;18.88;9.70;;;;;;;6.24;80.45;103018.41;5110236;28;20048;-53
2023/02/14 01:24:21;;;;;;;20.73;9.60;;;;;;;6.21;80.51;103014.16;5110345;28;20051;-54
2023/02/14 01:26:48;;;;;;;18.88;9.98;;;;;;;6.15;80.46;103003.91;5109910;28;20035;-53
2023/02/14 01:29:15;;;;;;;22.27;9.38;;;;;;;6.13;80.86;103008.34;5110369;28;20485;-54
2023/02/14 01:31:41;;;;;;;22.23;8.95;;;;;;;6.15;80.52;103004.75;5110376;28;20497;-53
2023/02/14 01:34:08;;;;;;;20.40;8.77;;;;;;;6.14;80.39;103010.94;5109824;28;20055;-53
2023/02/14 01:36:38;;;;;;;22.20;9.55;;;;;;;6.13;80.84;103006.59;5108592;28;20089;-53
2023/02/14 01:39:09;;;;;;;18.58;9.68;;;;;;;6.17;80.49;103011.72;5110051;28;20132;-54
2023/02/14 01:41:37;;;;;;;20.93;9.60;;;;;;;6.05;80.20;103005.22;5109959;28;20067;-53
2023/02/14 01:44:25;;;;;;;20.38;9.85;;;;;;;6.09;80.40;103006.78;5109985;28;20051;-54
2023/02/14 01:46:52;;;;;;;20.85;10.15;;;;;;;6.17;80.05;102998.53;5109080;28;20064;-53
2023/02/14 01:49:24;;;;;;;19.77;9.75;;;;;;;6.10;80.25;102992.72;5095788;28;20040;-54
2023/02/14 01:52:05;;;;;;;20.45;10.23;;;;;;;6.07;80.77;102988.41;5096286;28;20378;-53
2023/02/14 01:54:36;;;;;;;19.02;9.85;;;;;;;6.04;81.10;102996.47;5096002;28;20048;-53
2023/02/14 01:57:07;;;;;;;23.42;10.07;;;;;;;6.00;81.68;102997.50;5096089;28;20090;-51
2023/02/14 01:59:41;;;;;;;19.67;10.32;;;;;;;5.89;81.33;102990.06;5095460;28;20072;-54
2023/02/14 02:02:09;;;;;;;25.52;10.52;;;;;;;5.91;82.06;102990.00;5091625;28;20043;-53
2023/02/14 02:04:41;;;;;;;23.83;10.25;;;;;;;5.88;81.57;102982.25;5094888;28;20085;-53
2023/02/14 02:07:15;;;;;;;24.05;10.98;;;;;;;5.82;81.77;102986.03;5095145;28;20035;-52
2023/02/14 02:09:47;;;;;;;20.48;10.18;;;;;;;5.83;81.86;102987.72;5095641;28;20050;-53
2023/02/14 02:12:14;;;;;;;20.67;10.18;;;;;;;5.86;82.12;102986.75;5095988;28;20067;-54
2023/02/14 02:14:43;;;;;;;20.88;10.60;;;;;;;5.81;82.57;102988.72;5095916;28;20119;-53
2023/02/14 02:17:49;;;;;;;22.52;10.55;;;;;;;5.75;82.37;102980.16;5095246;28;20051;-53
2023/02/14 02:20:45;;;;;;;19.65;9.80;;;;;;;5.86;82.11;102978.84;5095508;28;20481;-54
2023/02/14 02:23:48;;;;;;;24.30;10.10;;;;;;;5.78;81.98;102976.53;5095579;28;20048;-54
2023/02/14 02:26:55;;;;;;;20.98;10.48;;;;;;;5.77;82.42;102973.03;5095439;28;20046;-53
2023/02/14 02:30:01;;;;;;;21.35;10.45;;;;;;;5.80;82.06;102981.72;5095020;28;20052;-53
2023/02/14 02:38:59;;;;;;;23.95;11.07;;;;;;;5.70;82.27;102979.50;5111157;27;20362;-52
2023/02/14 02:44:41;;;;;;;23.33;10.65;;;;;;;5.63;82.74;102964.03;5111204;27;20350;-53
2023/02/14 02:47:32;;;;;;;23.75;11.32;;;;;;;5.65;82.61;102967.47;5110953;28;20040;-53
2023/02/14 02:53:34;;;;;;;25.42;10.90;;;;;;;5.60;82.94;102967.66;5110989;28;20067;-53
2023/02/14 02:59:01;;;;;;;25.13;11.50;;;;;;;5.46;82.97;102960.38;5110571;28;20051;-54
2023/02/14 03:01:32;;;;;;;22.55;11.48;;;;;;;5.53;83.33;102963.56;5110158;28;20036;-54
2023/02/14 03:06:51;;;;;;;24.65;11.90;;;;;;;5.49;82.91;102952.31;5110557;28;20044;-52
2023/02/14 03:12:33;;;;;;;29.58;12.07;;;;;;;5.49;83.12;102962.00;5111225;27;20385;-52
2023/02/14 03:17:51;;;;;;;26.02;12.75;;;;;;;5.45;83.63;102960.44;5090508;28;20130;-53
2023/02/14 03:20:32;;;;;;;23.73;11.93;;;;;;;5.45;83.65;102963.91;5090491;28;20036;-54
2023/02/14 03:23:11;;;;;;;25.75;12.27;;;;;;;5.43;83.25;102967.53;5090637;28;20040;-53
2023/02/14 03:28:41;;;;;;;27.95;12.88;;;;;;;5.39;83.69;102969.44;5111102;27;20350;-52
2023/02/14 03:31:22;;;;;;;25.17;12.48;;;;;;;5.34;83.99;102971.41;5111292;28;20071;-52
2023/02/14 03:34:10;;;;;;;31.70;12.75;;;;;;;5.35;83.96;102970.50;5110729;28;20097;-53
2023/02/14 03:36:48;;;;;;;24.15;12.18;;;;;;;5.28;83.75;102969.91;5111184;28;20044;-52
2023/02/14 03:39:29;;;;;;;27.70;12.27;;;;;;;5.18;84.23;102969.44;5110269;28;20048;-53
2023/02/14 03:42:03;;;;;;;29.25;13.18;;;;;;;5.27;83.99;102975.22;5111025;28;20040;-54
2023/02/14 03:44:35;;;;;;;24.95;12.73;;;;;;;5.26;83.98;102976.16;5110862;28;20040;-53
2023/02/14 03:47:06;;;;;;;28.08;12.73;;;;;;;5.28;84.18;102975.16;5111028;28;20036;-53
2023/02/14 03:49:37;;;;;;;30.70;13.10;;;;;;;5.23;84.53;102981.56;5110439;28;20039;-53
2023/02/14 03:52:08;;;;;;;29.63;14.03;;;;;;;5.21;84.28;102971.09;5109382;28;20043;-52
2023/02/14 03:54:37;;;;;;;31.67;13.75;;;;;;;5.14;84.38;102972.25;5110763;28;20117;-52
2023/02/14 03:57:14;;;;;;;32.58;13.13;;;;;;;5.14;84.63;102977.53;5110544;28;20036;-52
2023/02/14 03:59:42;;;;;;;26.23;13.07;;;;;;;5.08;84.84;102976.00;5110048;28;20063;-53
2023/02/14 04:02:14;;;;;;;28.05;13.50;;;;;;;5.10;84.99;102975.94;5106042;28;20036;-53
2023/02/14 04:04:44;;;;;;;26.85;12.68;;;;;;;5.07;84.66;102966.38;5109215;28;20134;-54
2023/02/14 04:07:22;;;;;;;34.80;13.95;;;;;;;5.03;85.43;102964.81;5110058;28;20430;-54
2023/02/14 04:09:49;;;;;;;30.15;13.40;;;;;;;5.02;85.02;102970.13;5110015;28;20409;-54
2023/02/14 04:12:17;;;;;;;29.33;13.73;;;;;;;5.00;85.21;102973.69;5110443;28;20096;-53
2023/02/14 04:14:52;;;;;;;27.27;14.20;;;;;;;4.97;85.04;102965.06;5110189;28;20075;-54
2023/02/14 04:20:07;;;;;;;28.77;13.40;;;;;;;4.80;85.37;102966.63;5110133;28;20048;-53
2023/02/14 04:22:34;;;;;;;26.40;13.68;;;;;;;4.81;85.31;102970.94;5110457;28;20349;-54
2023/02/14 04:25:00;;;;;;;31.95;13.55;;;;;;;4.83;85.60;102967.41;5110131;28;20039;-54
2023/02/14 04:27:27;;;;;;;35.05;14.90;;;;;;;4.77;86.49;102964.09;5109602;28;20056;-53
2023/02/14 04:29:53;;;;;;;30.42;14.68;;;;;;;4.78;86.21;102957.94;5108608;28;20044;-53
2023/02/14 04:32:21;;;;;;;29.98;14.57;;;;;;;4.85;85.93;102958.53;5109761;28;20048;-53
2023/02/14 04:34:48;;;;;;;35.28;14.85;;;;;;;4.81;86.21;102963.06;5110076;28;20553;-53
2023/02/14 04:37:17;;;;;;;31.35;14.63;;;;;;;4.78;86.72;102959.69;5109495;28;20397;-53
2023/02/14 04:39:44;;;;;;;30.48;14.30;;;;;;;4.81;86.57;102955.16;5095325;28;20040;-53
2023/02/14 04:42:11;;;;;;;30.08;14.27;;;;;;;4.79;86.32;102956.16;5095078;28;20562;-53
2023/02/14 04:44:38;;;;;;;32.65;15.57;;;;;;;4.72;86.76;102952.06;5096056;28;20040;-53
2023/02/14 04:47:06;;;;;;;31.25;14.45;;;;;;;4.69;86.77;102949.53;5096159;28;20067;-53
2023/02/14 04:49:33;;;;;;;38.03;14.75;;;;;;;4.72;86.46;102941.53;5095738;28;20063;-51
2023/02/14 04:52:00;;;;;;;32.13;15.68;;;;;;;4.70;87.03;102938.97;5096216;28;20082;-53
2023/02/14 04:54:27;;;;;;;33.95;15.65;;;;;;;4.67;87.16;102939.09;5094968;28;20044;-54
2023/02/14 04:56:55;;;;;;;32.20;15.88;;;;;;;4.62;87.36;102933.19;5096003;28;20044;-55
2023/02/14 04:59:22;;;;;;;34.00;16.23;;;;;;;4.61;87.39;102936.72;5095464;28;20036;-54
2023/02/14 05:01:51;;;;;;;33.28;15.55;;;;;;;4.58;87.62;102934.19;5095316;28;20516;-53
2023/02/14 05:04:17;;;;;;;38.50;15.55;;;;;;;4.57;87.82;102935.97;5095163;28;20044;-53
2023/02/14 05:06:44;;;;;;;40.35;16.95;;;;;;;4.66;87.57;102933.88;5095669;28;20113;-54
2023/02/14 05:09:11;;;;;;;34.85;17.30;;;;;;;4.64;87.67;102933.97;5095272;28;20071;-53
2023/02/14 05:11:37;;;;;;;32.42;16.40;;;;;;;4.58;87.74;102932.44;5095454;28;20097;-53
2023/02/14 05:14:04;;;;;;;36.85;17.42;;;;;;;4.57;88.01;102930.72;5095460;28;20106;-52
2023/02/14 05:16:31;;;;;;;33.80;17.08;;;;;;;4.54;87.87;102927.38;5095554;28;20044;-53
2023/02/14 05:18:58;;;;;;;38.42;16.38;;;;;;;4.49;87.87;102924.91;5095078;28;20135;-52
2023/02/14 05:21:25;;;;;;;40.03;17.08;;;;;;;4.54;88.10;102922.94;5095437;28;20543;-53
2023/02/14 05:23:52;;;;;;;37.53;16.92;;;;;;;4.43;88.39;102930.41;5095417;28;20043;-54
2023/02/14 05:26:19;;;;;;;34.92;17.13;;;;;;;4.48;88.40;102917.94;5095118;28;20044;-54
2023/02/14 05:28:45;;;;;;;42.03;17.48;;;;;;;4.46;88.35;102916.28;5094157;28;20048;-53
2023/02/14 05:31:12;;;;;;;38.72;17.90;;;;;;;4.44;88.59;102916.38;5095345;28;20097;-53
2023/02/14 05:33:39;;;;;;;42.67;17.63;;;;;;;4.36;88.46;102911.41;5094935;28;20048;-53
2023/02/14 05:36:06;;;;;;;41.88;18.90;;;;;;;4.39;88.92;102913.91;5095015;28;20109;-53
2023/02/14 05:38:33;;;;;;;41.88;18.48;;;;;;;4.38;89.00;102913.97;5095222;28;20040;-54
2023/02/14 05:41:01;;;;;;;43.60;17.77;;;;;;;4.35;88.59;102912.31;5094698;28;20094;-53
2023/02/14 05:43:29;;;;;;;41.08;18.75;;;;;;;4.29;88.91;102914.34;5095261;28;20126;-53
2023/02/14 05:45:56;;;;;;;42.75;18.95;;;;;;;4.29;89.43;102911.69;5094816;28;20048;-54
2023/02/14 05:48:23;;;;;;;40.67;18.85;;;;;;;4.36;89.64;102910.53;5094500;28;20040;-53
2023/02/14 05:50:50;;;;;;;42.60;19.45;;;;;;;4.32;89.45;102912.44;5093888;28;20538;-53
2023/02/14 05:53:17;;;;;;;41.53;19.15;;;;;;;4.32;89.65;102909.81;5095026;28;20047;-53
2023/02/14 05:55:43;;;;;;;42.78;19.00;;;;;;;4.20;90.08;102912.91;5094510;28;20465;-53
2023/02/14 05:58:11;;;;;;;45.80;20.40;;;;;;;4.21;90.34;102909.38;5094764;28;20044;-52
2023/02/14 06:00:39;;;;;;;43.83;19.05;;;;;;;4.22;90.03;102908.44;5093458;28;20102;-53
2023/02/14 06:03:07;;;;;;;45.75;19.95;;;;;;;4.16;90.47;102904.28;5085488;28;20042;-54
2023/02/14 06:05:34;;;;;;;53.95;24.50;;;;;;;4.09;90.97;102918.56;5114684;28;20427;-54
2023/02/14 06:08:01;;;;;;;47.05;20.30;;;;;;;4.15;90.46;102909.63;5114709;28;20131;-53
2023/02/14 06:10:27;;;;;;;48.15;22.10;;;;;;;4.23;89.89;102918.06;5114833;28;20515;-53
2023/02/14 06:12:54;;;;;;;46.28;21.40;;;;;;;4.16;90.00;102906.91;5114702;28;20043;-53
2023/02/14 06:15:21;;;;;;;44.08;21.48;;;;;;;4.08;89.69;102922.13;5114873;28;20054;-52
2023/02/14 06:17:51;;;;;;;47.03;21.90;;;;;;;4.16;89.61;102916.59;5114215;28;20472;-53
2023/02/14 06:20:20;;;;;;;53.90;22.90;;;;;;;4.08;89.72;102918.66;5096059;28;20440;-53
2023/02/14 06:22:47;;;;;;;47.60;22.00;;;;;;;4.02;90.31;102917.97;5094087;28;20134;-54
2023/02/14 06:25:14;;;;;;;55.97;22.23;;;;;;;4.03;90.31;102917.03;5094310;28;20044;-54
2023/02/14 06:27:41;;;;;;;47.17;21.67;;;;;;;4.03;90.86;102929.31;5092271;28;20093;-54
2023/02/14 06:30:09;;;;;;;54.67;22.02;;;;;;;4.00;90.63;102918.94;5094047;28;20050;-53
2023/02/14 06:32:36;;;;;;;50.88;20.42;;;;;;;4.02;90.89;102922.34;5093856;28;20056;-53
2023/02/14 06:35:03;;;;;;;48.20;20.50;;;;;;;3.96;90.97;102923.44;5093719;28;20047;-53
2023/02/14 06:37:30;;;;;;;47.33;20.73;;;;;;;3.99;91.08;102930.38;5093442;28;20028;-53
2023/02/14 06:39:57;;;;;;;49.58;21.05;;;;;;;4.06;91.32;102936.22;5093549;28;20040;-54
2023/02/14 06:42:24;;;;;;;49.15;21.23;;;;;;;3.91;91.54;102935.91;5093537;28;20103;-53
2023/02/14 06:44:50;;;;;;;51.58;21.90;;;;;;;4.09;91.31;102941.38;5093584;28;20137;-53
2023/02/14 06:47:17;;;;;;;54.40;23.77;;;;;;;4.13;91.07;102943.84;5093304;28;20127;-53
2023/02/14 06:49:44;;;;;;;57.60;23.00;;;;;;;4.06;90.90;102936.22;5092862;28;20070;-53
2023/02/14 06:52:10;;;;;;;63.65;24.48;;;;;;;4.11;90.71;102942.16;5092059;28;20050;-53
2023/02/14 06:54:37;;;;;;;56.58;22.70;;;;;;;4.11;91.15;102940.41;5092215;28;20073;-53
2023/02/14 06:57:04;;;;;;;66.18;22.55;;;;;;;4.09;91.33;102936.13;5093435;28;20048;-54
2023/02/14 06:59:31;;;;;;;57.53;23.52;;;;;;;4.13;91.03;102935.06;5092839;28;20044;-53
2023/02/14 07:01:58;;;;;;;59.22;23.83;;;;;;;4.11;90.95;102937.78;5092562;28;20517;-52
2023/02/14 07:04:25;;;;;;;57.00;23.98;;;;;;;4.12;91.06;102936.84;5093089;28;20051;-53
2023/02/14 07:06:52;;;;;;;60.10;24.65;;;;;;;4.05;91.29;102935.38;5085477;28;20036;-53
2023/02/14 07:09:18;;;;;;;57.03;23.45;;;;;;;4.12;91.43;102942.13;5092919;28;20370;-54
2023/02/14 07:11:45;;;;;;;59.60;24.40;;;;;;;4.13;90.86;102938.59;5093355;28;20044;-60
2023/02/14 07:14:12;;;;;;;65.15;25.42;;;;;;;4.16;90.98;102941.06;5093071;28;20147;-57
2023/02/14 07:16:39;;;;;;;66.95;24.45;;;;;;;4.13;90.90;102933.31;5093323;28;20130;-55
2023/02/14 07:19:06;;;;;;;63.75;25.02;;;;;;;4.04;91.12;102937.16;5092058;28;20550;-54
2023/02/14 07:21:32;;;;;;;62.15;25.00;;;;;;;4.11;91.44;102937.78;5093108;28;20040;-54
2023/02/14 07:23:59;;;;;;;56.80;23.42;;;;;;;4.09;90.90;102936.97;5093161;28;20059;-54
2023/02/14 07:26:26;;;;;;;66.65;25.42;;;;;;;4.14;91.12;102928.91;5092670;28;20052;-53
2023/02/14 07:28:52;;;;;;;65.00;23.85;;;;;;;4.19;91.41;102932.22;5092270;28;20048;-52
2023/02/14 07:31:22;;;;;;;61.28;24.20;;;;;;;4.08;91.08;102932.63;5080158;28;20064;-52
2023/02/14 07:33:50;;;;;;;64.00;25.25;;;;;;;4.04;91.56;102933.69;5076837;28;20139;-53
2023/02/14 07:36:17;;;;;;;71.28;26.58;;;;;;;4.17;91.24;102940.16;5072833;28;20094;-53
2023/02/14 07:38:43;;;;;;;75.15;27.35;;;;;;;4.15;90.59;102934.13;5050074;28;20116;-53
2023/02/14 07:41:11;;;;;;;80.30;28.60;;;;;;;4.26;90.17;102924.94;5056755;28;20476;-53
2023/02/14 07:43:38;;;;;;;63.20;27.75;;;;;;;4.38;90.50;102929.72;5100834;28;20060;-58
2023/02/14 07:46:05;;;;;;;79.80;27.98;;;;;;;4.48;90.07;102927.63;5106995;28;20058;-53
2023/02/14 07:48:32;;;;;;;74.45;27.38;;;;;;;4.36;90.14;102935.03;5094299;28;20036;-53
2023/02/14 07:51:00;;;;;;;75.07;27.83;;;;;;;4.35;90.45;102938.59;5085950;28;20051;-52
2023/02/14 07:53:27;;;;;;;69.53;27.25;;;;;;;4.48;89.80;102936.34;5085846;28;20127;-52
2023/02/14 07:55:54;;;;;;;78.57;27.88;;;;;;;4.50;90.03;102925.78;5056455;28;20134;-53
2023/02/14 07:58:21;;;;;;;69.82;26.95;;;;;;;4.64;89.10;102935.72;5106060;28;20067;-53
2023/02/14 08:00:49;;;;;;;76.35;27.75;;;;;;;4.61;89.12;102929.69;5078502;28;20071;-53
2023/02/14 08:03:17;;;;;;;75.05;26.77;;;;;;;4.85;87.89;102941.91;5107636;28;20047;-52
2023/02/14 08:05:44;;;;;;;73.47;26.42;;;;;;;4.92;87.07;102938.09;5071557;28;20047;-52
2023/02/14 08:08:10;;;;;;;70.32;27.23;;;;;;;5.01;86.66;102937.72;5072250;28;20477;-53
2023/02/14 08:10:37;;;;;;;74.25;26.05;;;;;;;5.13;86.28;102947.72;5077049;28;20062;-53
2023/02/14 08:13:04;;;;;;;64.80;25.60;;;;;;;5.11;86.03;102946.94;5090906;28;20041;-53
2023/02/14 08:16:04;;;;;;;68.90;27.08;;;;;;;5.21;85.86;102939.50;5081611;28;20097;-52
2023/02/14 08:18:22;;;;;;;67.10;26.17;;;;;;;5.29;85.23;102937.38;5098239;28;20139;-51
2023/02/14 08:20:49;;;;;;;66.30;25.67;;;;;;;5.29;84.83;102937.38;5075436;28;20113;-51
2023/02/14 08:23:17;;;;;;;63.63;24.65;;;;;;;5.30;84.54;102940.91;5088479;28;20067;-52
2023/02/14 08:25:45;;;;;;;70.50;25.02;;;;;;;5.24;85.15;102943.78;5077139;28;20043;-49
2023/02/14 08:28:12;;;;;;;71.95;26.23;;;;;;;5.29;84.53;102947.91;5083496;28;20040;-50
2023/02/14 08:30:39;;;;;;;58.72;24.55;;;;;;;5.48;83.12;102945.34;5074132;28;20044;-53
2023/02/14 08:33:06;;;;;;;67.38;25.35;;;;;;;6.03;81.31;102943.84;5093829;28;20043;-50
2023/02/14 08:35:34;;;;;;;59.70;23.27;;;;;;;6.54;79.33;102942.31;5076827;28;20405;-52
2023/02/14 08:38:01;;;;;;;69.28;24.92;;;;;;;7.15;76.16;102945.47;5091841;28;20118;-52
2023/02/14 08:40:28;;;;;;;66.32;24.90;;;;;;;6.68;77.98;102936.38;5056940;28;20040;-52
2023/02/14 08:42:54;;;;;;;64.25;23.52;;;;;;;7.33;76.26;102944.56;5097529;28;20247;-51
2023/02/14 08:45:22;;;;;;;59.10;24.38;;;;;;;7.95;72.66;102944.81;5085322;28;20127;-51
2023/02/14 08:47:48;;;;;;;59.97;24.25;;;;;;;8.25;71.69;102947.53;5092854;28;20093;-51
2023/02/14 08:50:17;;;;;;;59.28;23.50;;;;;;;8.71;69.25;102944.13;5081120;28;20066;-52
2023/02/14 08:52:44;;;;;;;56.20;23.70;;;;;;;8.57;68.55;102949.38;5093976;28;20042;-52
2023/02/14 08:55:12;;;;;;;51.10;23.80;;;;;;;7.94;71.11;102952.81;5080682;28;20458;-54
2023/02/14 08:57:39;;;;;;;58.63;24.00;;;;;;;8.36;69.46;102943.47;5085556;28;20484;-50
2023/02/14 09:00:08;;;;;;;53.38;24.50;;;;;;;7.78;70.98;102940.41;5060285;28;20048;-53
2023/02/14 09:02:36;;;;;;;57.63;23.83;;;;;;;7.25;74.62;102944.09;5093864;28;20497;-49
2023/02/14 09:05:05;;;;;;;55.28;23.10;;;;;;;6.68;76.49;102941.66;5071944;28;20083;-54
2023/02/14 09:07:31;;;;;;;54.03;22.95;;;;;;;6.67;77.83;102945.19;5102084;28;20044;-52
2023/02/14 09:09:58;;;;;;;51.85;22.17;;;;;;;6.47;78.40;102941.75;5071376;28;20043;-51
2023/02/14 09:12:24;;;;;;;52.90;22.58;;;;;;;6.40;78.41;102937.69;5102299;28;20047;-51
2023/02/14 09:14:51;;;;;;;53.28;22.25;;;;;;;6.44;78.87;102931.34;5068937;28;20848;-52
2023/02/14 09:17:19;;;;;;;51.30;22.27;;;;;;;6.46;78.35;102933.94;5101213;28;20041;-51
2023/02/14 09:19:46;;;;;;;49.80;21.75;;;;;;;6.33;79.32;102929.22;5077603;28;20089;-51
2023/02/14 09:22:13;;;;;;;55.40;23.67;;;;;;;6.32;80.35;102924.03;5088633;28;20040;-52
2023/02/14 09:24:40;;;;;;;50.45;22.55;;;;;;;6.31;81.02;102927.56;5091945;28;20048;-51
2023/02/14 09:27:07;;;;;;;52.88;22.98;;;;;;;6.20;81.16;102922.81;5075777;28;20051;-52
2023/02/14 09:29:34;;;;;;;56.17;23.25;;;;;;;6.40;80.92;102910.47;5087685;28;20096;-52
2023/02/14 09:32:01;;;;;;;49.92;23.08;;;;;;;6.56;80.18;102910.59;5086932;28;20050;-51
2023/02/14 09:34:28;;;;;;;59.70;23.70;;;;;;;6.52;80.71;102913.38;5091945;28;20047;-51
2023/02/14 09:39:42;;;;;;;54.75;23.05;;;;;;;6.54;80.38;102915.94;5068889;28;20097;-55
2023/02/14 09:44:40;;;;;;;52.88;23.40;;;;;;;6.74;79.84;102917.59;5087293;28;20732;-55
2023/02/14 09:47:22;;;;;;;49.55;22.17;;;;;;;6.86;79.02;102911.72;5063954;28;20056;-54
2023/02/14 09:49:51;;;;;;;53.75;23.30;;;;;;;6.80;79.69;102909.38;5065230;28;20135;-55
2023/02/14 09:52:21;;;;;;;49.22;23.15;;;;;;;6.91;79.11;102909.72;5088395;28;20111;-55
2023/02/14 09:54:54;;;;;;;50.58;23.45;;;;;;;6.90;79.07;102909.78;5073401;28;20497;-56
2023/02/14 10:00:41;;;;;;;49.20;22.48;;;;;;;7.03;78.51;102905.59;5050909;27;1169669;-54
2023/02/14 10:03:37;;;;;;;61.55;23.17;;;;;;;7.18;78.00;102911.00;5077620;28;20493;-53
2023/02/14 10:06:18;;;;;;;47.05;21.85;;;;;;;7.21;78.92;102905.59;5073642;28;20094;-53
2023/02/14 10:09:01;;;;;;;48.03;22.27;;;;;;;7.38;77.95;102902.91;5076416;28;20111;-54
2023/02/14 10:11:28;;;;;;;48.17;22.08;;;;;;;7.46;76.78;102906.00;5068509;28;20071;-54
2023/02/14 10:14:03;;;;;;;46.55;20.92;;;;;;;7.49;76.65;102899.69;5087693;28;20048;-52
2023/02/14 10:16:36;;;;;;;42.63;21.33;;;;;;;7.52;76.82;102910.09;5083371;28;20584;-55
2023/02/14 10:19:13;;;;;;;44.58;21.00;;;;;;;7.64;77.25;102898.03;5087141;28;20044;-53
2023/02/14 10:21:45;;;;;;;41.95;20.80;;;;;;;7.92;75.02;102902.69;5082137;28;20052;-54
2023/02/14 10:24:26;;;;;;;42.28;20.23;;;;;;;7.90;74.63;102899.28;5089298;28;20588;-53
2023/02/14 10:27:01;;;;;;;44.13;20.25;;;;;;;7.98;74.44;102901.50;5084138;28;20494;-52
2023/02/14 10:29:29;;;;;;;40.30;20.42;;;;;;;8.01;73.11;102903.97;5090081;28;20036;-53
2023/02/14 10:31:59;;;;;;;37.10;17.95;;;;;;;8.05;72.92;102902.88;5083408;28;20049;-53
2023/02/14 10:37:34;;;;;;;41.33;20.55;;;;;;;8.14;73.30;102901.50;5103138;27;20391;-54
2023/02/14 10:40:32;;;;;;;44.45;20.42;;;;;;;8.16;73.63;102896.97;5125403;28;20085;-54
2023/02/14 10:43:25;;;;;;;40.30;20.35;;;;;;;8.25;74.05;102888.53;5106416;28;20054;-54
2023/02/14 10:46:09;;;;;;;36.95;19.23;;;;;;;8.35;72.54;102879.16;5110549;28;20233;-53
2023/02/14 10:49:07;;;;;;;36.97;19.10;;;;;;;8.38;73.01;102880.75;5103732;28;20036;-53
2023/02/14 10:51:56;;;;;;;37.75;18.70;;;;;;;8.52;72.29;102880.00;5110484;28;20538;-52
2023/02/14 10:54:31;;;;;;;39.50;20.65;;;;;;;8.65;71.26;102881.00;5106376;28;20055;-54
2023/02/14 10:57:03;;;;;;;39.30;18.73;;;;;;;8.79;70.91;102874.91;5108832;28;20046;-53
2023/02/14 10:59:56;;;;;;;42.97;20.35;;;;;;;8.76;69.90;102878.56;5105456;28;20499;-52
2023/02/14 11:02:42;;;;;;;38.50;18.67;;;;;;;8.98;70.15;102872.84;5109091;28;20124;-54
2023/02/14 11:05:25;;;;;;;37.83;19.33;;;;;;;9.20;69.04;102864.50;5104419;28;20064;-54
2023/02/14 11:07:52;;;;;;;37.33;18.83;;;;;;;9.37;67.61;102863.44;5107793;28;20040;-53
2023/02/14 11:10:24;;;;;;;35.65;18.83;;;;;;;9.48;69.25;102859.25;5104609;28;20043;-54
2023/02/14 11:12:50;;;;;;;37.92;19.50;;;;;;;9.72;67.40;102854.25;5110223;28;20481;-53
2023/02/14 11:15:38;;;;;;;36.42;19.02;;;;;;;10.38;65.61;102860.63;5105256;28;20040;-54
2023/02/14 11:18:30;;;;;;;35.83;19.30;;;;;;;12.79;57.76;102860.50;5109185;28;20085;-53
2023/02/14 11:21:01;;;;;;;38.10;19.38;;;;;;;15.87;48.15;102867.19;5096445;28;20493;-55
2023/02/14 11:23:33;;;;;;;43.33;19.88;;;;;;;18.12;42.12;102873.78;5108429;28;20148;-54
2023/02/14 11:26:02;;;;;;;38.72;20.02;;;;;;;19.42;37.82;102877.63;5102047;28;20040;-54
2023/02/14 11:28:29;;;;;;;40.63;20.52;;;;;;;21.27;35.68;102869.25;5108524;28;20044;-54
2023/02/14 11:30:56;;;;;;;44.63;22.33;;;;;;;22.52;32.37;102872.97;5105636;28;20044;-55
2023/02/14 11:33:30;;;;;;;44.40;21.23;;;;;;;23.18;30.88;102875.91;5108585;28;20047;-55
2023/02/14 11:35:58;;;;;;;53.25;24.85;;;;;;;23.04;31.03;102864.03;5105693;28;20501;-55
2023/02/14 11:38:33;;;;;;;49.42;25.70;;;;;;;23.37;29.95;102869.06;5107514;28;20040;-56
2023/02/14 11:41:01;;;;;;;47.83;27.05;;;;;;;23.65;30.15;102857.53;5104610;28;20032;-55
2023/02/14 11:43:44;;;;;;;47.95;26.98;;;;;;;24.57;27.71;102858.72;5106157;28;20200;-55
2023/02/14 11:49:02;;;;;;;52.95;26.80;;;;;;;25.23;27.22;102866.47;5084898;28;20187;-52
2023/02/14 11:51:35;;;;;;;51.67;28.75;;;;;;;23.74;28.15;102851.84;5089959;28;20491;-56
2023/02/14 11:54:04;;;;;;;48.58;26.30;;;;;;;25.08;27.31;102851.13;5073013;28;20445;-56
2023/02/14 11:56:53;;;;;;;46.92;26.08;;;;;;;25.27;26.33;102851.50;5068827;28;20044;-53
2023/02/14 11:59:27;;;;;;;48.58;26.42;;;;;;;25.23;26.49;102844.75;5064246;28;20037;-54
2023/02/14 12:01:57;;;;;;;46.65;26.50;;;;;;;25.19;25.39;102838.03;5069572;28;20110;-54
2023/02/14 12:04:33;;;;;;;45.22;25.63;;;;;;;25.77;24.91;102843.09;5064801;28;20721;-54
2023/02/14 12:07:29;;;;;;;45.03;26.38;;;;;;;25.15;25.45;102840.31;5068434;28;20052;-53
2023/02/14 12:10:16;;;;;;;;;;;;;;;24.80;26.42;102839.50;5066085;28;20483;-54
2023/02/14 12:15:51;;;;;;;45.40;24.80;;;;;;;24.20;27.48;102823.56;5085274;27;20398;-55
2023/02/14 12:18:42;;;;;;;44.45;25.20;;;;;;;22.99;29.28;102820.41;5090637;28;20497;-53
2023/02/14 12:24:40;;;;;;;45.70;23.60;;;;;;;20.98;31.78;102804.25;5060397;28;20381;-52